Time;durP1;ratioP1;P1;durP2;ratioP2;P2;SDS_P1;SDS_P2;PMS_P1;PMS_P2;Temp;Humidity;BMP_temperature;BMP_pressure;BME280_temperature;BME280_humidity;BME280_pressure;Samples;Min_cycle;Max_cycle;Signal;HPM_P1;HPM_P2
2021/07/10 00:00:01;;;;;;;1.88;1.40;;;;;;;21.83;51.73;96451.56;4988106;28;20022;-52
2021/07/10 00:02:26;;;;;;;3.70;1.70;;;;;;;21.82;51.57;96446.53;4987995;28;20038;-52
2021/07/10 00:04:52;;;;;;;2.08;1.38;;;;;;;21.82;51.59;96451.88;4987425;28;20037;-52
2021/07/10 00:07:17;;;;;;;2.38;1.98;;;;;;;21.80;51.74;96449.53;4987489;28;20023;-51
2021/07/10 00:09:42;;;;;;;4.55;1.40;;;;;;;21.80;51.80;96443.41;4987978;28;20410;-51
2021/07/10 00:12:08;;;;;;;1.80;1.48;;;;;;;21.80;51.72;96440.75;4987609;28;20545;-51
2021/07/10 00:14:33;;;;;;;2.05;1.40;;;;;;;21.78;51.72;96438.41;4987218;28;20045;-51
2021/07/10 00:16:59;;;;;;;1.95;1.20;;;;;;;21.76;51.72;96437.94;4987819;28;20471;-51
2021/07/10 00:19:24;;;;;;;3.97;1.60;;;;;;;21.76;52.01;96432.59;4986309;28;20084;-51
2021/07/10 00:21:50;;;;;;;2.28;1.40;;;;;;;21.75;51.81;96433.69;4987503;28;20030;-51
2021/07/10 00:24:15;;;;;;;1.50;1.35;;;;;;;21.74;51.72;96429.47;4987000;28;20033;-52
2021/07/10 00:26:41;;;;;;;4.13;1.50;;;;;;;21.73;51.87;96423.38;4988310;28;20022;-51
2021/07/10 00:29:06;;;;;;;2.85;2.08;;;;;;;21.73;51.90;96426.03;4986576;28;20022;-51
2021/07/10 00:31:32;;;;;;;1.67;1.33;;;;;;;21.73;51.71;96423.38;4987360;28;20049;-51
2021/07/10 00:33:57;;;;;;;2.35;1.42;;;;;;;21.73;51.77;96423.38;4987723;28;20034;-52
2021/07/10 00:36:22;;;;;;;1.70;1.40;;;;;;;21.71;51.83;96417.59;4987133;28;20022;-51
2021/07/10 00:38:48;;;;;;;1.92;1.50;;;;;;;21.71;51.88;96420.25;4987520;28;20490;-51
2021/07/10 00:41:13;;;;;;;1.75;1.40;;;;;;;21.70;51.93;96415.22;4987168;28;20037;-51
2021/07/10 00:43:39;;;;;;;4.15;1.67;;;;;;;21.69;51.79;96403.78;4987242;28;20030;-51
2021/07/10 00:46:05;;;;;;;2.75;1.63;;;;;;;21.70;51.80;96399.22;4987673;28;20039;-51
2021/07/10 00:48:31;;;;;;;2.97;1.73;;;;;;;21.68;52.00;96398.75;4985342;28;20053;-51
2021/07/10 00:50:56;;;;;;;3.58;2.10;;;;;;;21.67;52.01;96400.66;4987128;28;20487;-52
2021/07/10 00:53:22;;;;;;;5.00;1.90;;;;;;;21.67;52.13;96398.00;4986897;28;20034;-51
2021/07/10 00:55:47;;;;;;;4.43;1.80;;;;;;;21.68;51.90;96393.44;4988712;28;20029;-51
2021/07/10 00:58:13;;;;;;;2.78;1.88;;;;;;;21.67;51.86;96392.66;4990969;28;20514;-51
2021/07/10 01:00:40;;;;;;;4.72;1.70;;;;;;;21.66;52.13;96392.97;4991246;28;20037;-51
2021/07/10 01:03:06;;;;;;;2.72;1.80;;;;;;;21.66;51.86;96391.06;4990809;28;20026;-52
2021/07/10 01:05:31;;;;;;;3.53;1.65;;;;;;;21.64;51.89;96385.28;4990305;28;20018;-51
2021/07/10 01:07:57;;;;;;;3.88;1.70;;;;;;;21.64;51.68;96387.97;4991866;28;20026;-51
2021/07/10 01:10:23;;;;;;;2.88;1.90;;;;;;;21.63;51.84;96386.41;4991148;28;20040;-51
2021/07/10 01:12:49;;;;;;;4.32;2.00;;;;;;;21.62;51.75;96387.50;4990575;28;20026;-51
2021/07/10 01:15:19;;;;;;;3.22;2.17;;;;;;;21.62;51.94;96376.06;4990950;28;20062;-51
2021/07/10 01:17:45;;;;;;;2.70;1.63;;;;;;;21.61;51.92;96377.94;4991317;28;20030;-51
2021/07/10 01:20:15;;;;;;;3.10;1.92;;;;;;;21.60;51.87;96384.38;4991068;28;20029;-51
2021/07/10 01:22:41;;;;;;;2.35;1.98;;;;;;;21.60;52.01;96378.28;4990929;28;20085;-50
2021/07/10 01:25:09;;;;;;;2.70;1.80;;;;;;;21.59;52.00;96380.16;4991036;28;20026;-51
2021/07/10 01:27:34;;;;;;;2.97;1.90;;;;;;;21.58;51.87;96383.94;4990047;28;20739;-51
2021/07/10 01:30:02;;;;;;;2.20;1.73;;;;;;;21.57;51.73;96369.03;4991445;28;20041;-51
2021/07/10 01:32:28;;;;;;;3.40;1.95;;;;;;;21.57;51.87;96369.03;4991143;28;20065;-52
2021/07/10 01:34:53;;;;;;;1.40;1.30;;;;;;;21.56;51.91;96361.34;4990026;28;20081;-52
2021/07/10 01:37:19;;;;;;;2.92;2.10;;;;;;;21.56;51.82;96369.38;4989955;28;20034;-51
2021/07/10 01:39:44;;;;;;;6.35;2.35;;;;;;;21.53;51.81;96368.91;4991164;28;20394;-51
2021/07/10 01:42:10;;;;;;;5.10;2.00;;;;;;;21.54;52.03;96375.03;4990816;28;20022;-51
2021/07/10 01:44:36;;;;;;;3.28;1.95;;;;;;;21.52;51.92;96374.56;4989305;28;20408;-51
2021/07/10 01:47:02;;;;;;;3.58;2.35;;;;;;;21.51;51.99;96379.13;4990613;28;20022;-51
2021/07/10 01:49:27;;;;;;;3.90;2.30;;;;;;;21.51;51.83;96365.00;4990548;28;20450;-51
2021/07/10 01:51:53;;;;;;;3.97;2.13;;;;;;;21.50;51.89;96366.13;4990642;28;20114;-51
2021/07/10 01:54:18;;;;;;;3.42;1.85;;;;;;;21.49;52.09;96361.88;4990293;28;20034;-51
2021/07/10 01:56:44;;;;;;;4.78;1.90;;;;;;;21.48;51.98;96363.00;4990237;28;20014;-51
2021/07/10 01:59:10;;;;;;;3.65;2.58;;;;;;;21.47;52.11;96366.75;4990011;28;20113;-51
2021/07/10 02:01:35;;;;;;;3.42;2.08;;;;;;;21.47;51.75;96367.56;4990046;28;20034;-51
2021/07/10 02:04:01;;;;;;;2.22;1.70;;;;;;;21.46;52.05;96371.31;4990138;28;20026;-51
2021/07/10 02:06:26;;;;;;;4.53;2.13;;;;;;;21.45;52.41;96364.44;4989769;28;20494;-51
2021/07/10 02:08:52;;;;;;;3.58;1.92;;;;;;;21.45;52.04;96368.97;4988509;28;20038;-51
2021/07/10 02:11:17;;;;;;;3.85;2.63;;;;;;;21.45;52.17;96360.97;4989624;28;20529;-51
2021/07/10 02:13:43;;;;;;;3.90;1.90;;;;;;;21.44;52.11;96365.53;4989920;28;20026;-51
2021/07/10 02:16:10;;;;;;;4.20;1.90;;;;;;;21.44;52.04;96356.75;4989337;28;20018;-51
2021/07/10 02:18:35;;;;;;;2.28;1.80;;;;;;;21.43;52.13;96357.84;4989713;28;20030;-51
2021/07/10 02:21:01;;;;;;;4.20;2.03;;;;;;;21.43;51.93;96355.19;4989755;28;20026;-50
2021/07/10 02:23:26;;;;;;;2.78;1.90;;;;;;;21.40;52.07;96361.94;4989950;28;20512;-51
2021/07/10 02:25:52;;;;;;;3.22;1.90;;;;;;;21.41;52.13;96349.34;4989799;28;20434;-51
2021/07/10 02:28:17;;;;;;;5.88;2.35;;;;;;;21.40;52.11;96353.91;4989503;28;20053;-51
2021/07/10 02:30:43;;;;;;;2.30;1.80;;;;;;;21.40;52.07;96351.25;4989647;28;20034;-51
2021/07/10 02:33:08;;;;;;;4.30;1.73;;;;;;;21.40;52.04;96347.81;4989608;28;20514;-52
2021/07/10 02:35:33;;;;;;;3.72;1.75;;;;;;;21.40;51.99;96353.16;4989556;28;20112;-52
2021/07/10 02:37:59;;;;;;;3.42;1.92;;;;;;;21.38;51.84;96345.47;4989671;28;20030;-51
2021/07/10 02:40:24;;;;;;;3.10;2.13;;;;;;;21.38;52.07;96353.47;4990341;28;20453;-52
2021/07/10 02:42:50;;;;;;;3.80;1.80;;;;;;;21.37;52.00;96345.78;4989520;28;20034;-52
2021/07/10 02:45:16;;;;;;;2.60;1.83;;;;;;;21.37;52.01;96351.94;4988418;28;20049;-52
2021/07/10 02:47:41;;;;;;;2.90;2.10;;;;;;;21.36;52.11;96345.00;4989219;28;20019;-51
2021/07/10 02:50:09;;;;;;;2.90;2.10;;;;;;;21.35;52.04;96346.91;4989104;28;20085;-53
2021/07/10 02:52:35;;;;;;;2.05;1.73;;;;;;;21.34;52.06;96337.31;4989424;28;20029;-51
2021/07/10 02:55:00;;;;;;;2.95;1.80;;;;;;;21.34;52.03;96339.22;4989318;28;20390;-51
2021/07/10 02:57:25;;;;;;;2.50;1.80;;;;;;;21.32;52.21;96347.56;4988869;28;20495;-51
2021/07/10 02:59:51;;;;;;;1.85;1.40;;;;;;;21.32;51.94;96336.88;4989035;28;20033;-51
2021/07/10 03:02:16;;;;;;;2.95;1.80;;;;;;;21.32;52.00;96339.53;4988553;28;20030;-52
2021/07/10 03:04:43;;;;;;;5.20;1.98;;;;;;;21.31;51.99;96337.22;4988961;28;20033;-52
2021/07/10 03:07:09;;;;;;;3.53;2.30;;;;;;;21.30;52.11;96341.00;4988901;28;20029;-51
2021/07/10 03:09:34;;;;;;;3.33;2.15;;;;;;;21.29;52.05;96340.22;4989153;28;20026;-51
2021/07/10 03:12:00;;;;;;;3.05;2.22;;;;;;;21.30;51.99;96341.00;4988890;28;20034;-51
2021/07/10 03:14:25;;;;;;;3.75;1.98;;;;;;;21.29;51.93;96339.44;4989100;28;20041;-51
2021/07/10 03:16:50;;;;;;;2.70;2.05;;;;;;;21.27;52.05;96330.97;4989092;28;20065;-50
2021/07/10 03:19:16;;;;;;;3.10;1.98;;;;;;;21.28;51.89;96327.19;4987505;28;20419;-51
2021/07/10 03:21:42;;;;;;;2.53;1.63;;;;;;;21.26;51.93;96330.19;4988770;28;20026;-51
2021/07/10 03:24:08;;;;;;;2.72;1.80;;;;;;;21.26;51.97;96329.41;4987415;28;20033;-51
2021/07/10 03:26:33;;;;;;;2.78;1.85;;;;;;;21.25;52.00;96333.97;4988540;28;20072;-51
2021/07/10 03:28:59;;;;;;;2.58;1.70;;;;;;;21.25;51.88;96330.50;4988585;28;20030;-52
2021/07/10 03:31:24;;;;;;;2.20;1.45;;;;;;;21.25;51.96;96327.84;4988403;28;20038;-51
2021/07/10 03:33:49;;;;;;;3.53;1.90;;;;;;;21.24;51.87;96326.28;4988310;28;20031;-51
2021/07/10 03:36:15;;;;;;;3.50;1.73;;;;;;;21.24;51.93;96331.63;4988287;28;20411;-51
2021/07/10 03:38:43;;;;;;;2.97;1.90;;;;;;;21.23;51.85;96330.06;4988413;28;20030;-52
2021/07/10 03:41:09;;;;;;;2.13;1.58;;;;;;;21.23;51.91;96340.72;4988111;28;20037;-51
2021/07/10 03:43:35;;;;;;;2.58;1.60;;;;;;;21.22;51.95;96339.19;4987870;28;20030;-51
2021/07/10 03:46:02;;;;;;;2.33;1.50;;;;;;;21.22;51.91;96336.50;4988489;28;20503;-52
2021/07/10 03:48:28;;;;;;;2.85;1.90;;;;;;;21.20;51.88;96331.50;4988342;28;20029;-52
2021/07/10 03:50:54;;;;;;;2.05;1.85;;;;;;;21.19;51.92;96332.63;4988477;28;20018;-53
2021/07/10 03:53:19;;;;;;;3.30;1.88;;;;;;;21.19;51.85;96340.63;4988001;28;20027;-51
2021/07/10 03:55:45;;;;;;;2.05;1.52;;;;;;;21.18;51.85;96331.03;4988161;28;20035;-51
2021/07/10 03:58:10;;;;;;;6.50;1.42;;;;;;;21.18;51.99;96333.72;4987888;28;20785;-51
2021/07/10 04:00:36;;;;;;;2.60;1.92;;;;;;;21.18;51.88;96335.59;4988084;28;20036;-52
2021/07/10 04:03:01;;;;;;;2.65;1.63;;;;;;;21.17;51.75;96329.50;4987560;28;20038;-52
2021/07/10 04:05:27;;;;;;;2.60;1.50;;;;;;;21.15;51.70;96332.50;4988060;28;20057;-52
2021/07/10 04:07:52;;;;;;;2.92;1.67;;;;;;;21.15;51.89;96332.50;4988174;28;20037;-52
2021/07/10 04:10:18;;;;;;;4.00;2.08;;;;;;;21.16;51.95;96325.25;4986386;28;20041;-52
2021/07/10 04:12:43;;;;;;;4.38;1.58;;;;;;;21.13;51.80;96321.38;4987175;28;20034;-52
2021/07/10 04:15:10;;;;;;;3.25;1.40;;;;;;;21.14;51.89;96327.47;4987015;28;20040;-52
2021/07/10 04:17:35;;;;;;;2.78;1.75;;;;;;;21.14;52.01;96327.47;4981009;28;20030;-52
2021/07/10 04:20:01;;;;;;;2.53;1.65;;;;;;;21.12;51.79;96322.47;4987010;28;20414;-52
2021/07/10 04:22:26;;;;;;;3.53;1.80;;;;;;;21.12;51.75;96332.34;4987455;28;20037;-52
2021/07/10 04:24:51;;;;;;;4.63;1.75;;;;;;;21.13;51.85;96328.59;4987217;28;20042;-52
2021/07/10 04:27:17;;;;;;;4.05;1.55;;;;;;;21.11;51.87;96328.13;4986370;28;20041;-52
2021/07/10 04:29:44;;;;;;;3.00;1.60;;;;;;;21.11;51.90;96330.81;4987203;28;20029;-52
2021/07/10 04:32:11;;;;;;;2.47;1.58;;;;;;;21.09;52.03;96333.03;4987704;28;20080;-53
2021/07/10 04:34:36;;;;;;;3.80;1.52;;;;;;;21.09;51.89;96333.03;4987477;28;20072;-52
2021/07/10 04:37:02;;;;;;;5.00;1.90;;;;;;;21.09;51.96;96338.34;4987714;28;20530;-52
2021/07/10 04:39:27;;;;;;;2.60;1.90;;;;;;;21.08;51.88;96342.13;4988028;28;20041;-52
2021/07/10 04:41:53;;;;;;;4.10;1.77;;;;;;;21.08;51.87;96336.78;4987797;28;20026;-52
2021/07/10 04:44:18;;;;;;;4.10;2.00;;;;;;;21.07;51.80;96337.91;4986241;28;20532;-52
2021/07/10 04:46:43;;;;;;;3.03;1.92;;;;;;;21.06;51.86;96331.75;4969472;28;20033;-52
2021/07/10 04:49:10;;;;;;;3.03;2.00;;;;;;;21.06;51.83;96328.31;4977168;28;20053;-52
2021/07/10 04:51:35;;;;;;;3.00;1.92;;;;;;;21.04;51.56;96335.88;4986939;28;20404;-52
2021/07/10 04:54:00;;;;;;;4.47;1.88;;;;;;;21.04;51.83;96338.53;4985226;28;20034;-52
2021/07/10 04:56:26;;;;;;;4.28;1.95;;;;;;;21.03;51.82;96342.31;4981339;28;20046;-52
2021/07/10 04:58:51;;;;;;;7.18;2.00;;;;;;;21.03;51.73;96342.31;4986936;28;20085;-52
2021/07/10 05:01:17;;;;;;;3.85;1.88;;;;;;;21.02;51.61;96344.19;4986849;28;20514;-52
2021/07/10 05:03:42;;;;;;;2.58;1.70;;;;;;;21.02;51.59;96338.09;4985988;28;20026;-52
2021/07/10 05:06:09;;;;;;;4.45;2.10;;;;;;;21.02;51.63;96330.09;4986432;28;20404;-52
2021/07/10 05:08:34;;;;;;;5.63;2.22;;;;;;;21.00;51.41;96333.06;4986777;28;20042;-52
2021/07/10 05:11:00;;;;;;;3.58;1.60;;;;;;;21.00;51.45;96326.97;4986380;28;20022;-52
2021/07/10 05:13:25;;;;;;;3.70;2.00;;;;;;;20.99;51.45;96320.84;4986451;28;20085;-52
2021/07/10 05:15:50;;;;;;;7.03;1.90;;;;;;;20.99;51.39;96328.84;4985678;28;20023;-52
2021/07/10 05:18:16;;;;;;;2.83;1.85;;;;;;;20.99;51.10;96326.19;4976549;28;20395;-52
2021/07/10 05:20:41;;;;;;;4.13;2.00;;;;;;;20.98;51.41;96329.19;4986576;28;20029;-52
2021/07/10 05:23:06;;;;;;;5.30;1.95;;;;;;;20.97;51.72;96327.59;4986218;28;20030;-52
2021/07/10 05:25:32;;;;;;;3.45;1.42;;;;;;;20.97;51.35;96336.41;4987047;28;20073;-53
2021/07/10 05:27:57;;;;;;;3.83;1.83;;;;;;;20.97;51.33;96335.59;4986259;28;20109;-53
2021/07/10 05:30:23;;;;;;;4.55;1.77;;;;;;;20.95;51.34;96331.38;4986812;28;20105;-52
2021/07/10 05:32:48;;;;;;;3.42;2.08;;;;;;;20.95;51.17;96326.06;4986905;28;20022;-52
2021/07/10 05:35:16;;;;;;;4.68;2.03;;;;;;;20.94;51.32;96324.47;4986304;28;20041;-52
2021/07/10 05:37:41;;;;;;;6.38;2.78;;;;;;;20.94;51.25;96321.81;4986637;28;20502;-53
2021/07/10 05:40:07;;;;;;;3.00;1.80;;;;;;;20.95;51.33;96322.63;4986647;28;20031;-52
2021/07/10 05:42:32;;;;;;;4.78;1.63;;;;;;;20.94;51.33;96315.72;4989204;28;20041;-53
2021/07/10 05:44:58;;;;;;;4.75;1.83;;;;;;;20.94;51.29;96313.03;4990252;28;20018;-52
2021/07/10 05:47:23;;;;;;;4.13;2.05;;;;;;;20.92;51.27;96316.03;4989827;28;20030;-52
2021/07/10 05:49:48;;;;;;;2.72;1.83;;;;;;;20.92;51.46;96316.03;4990043;28;20018;-53
2021/07/10 05:52:14;;;;;;;3.72;2.10;;;;;;;20.93;51.34;96325.59;4990070;28;20038;-54
2021/07/10 05:54:39;;;;;;;2.40;1.80;;;;;;;20.92;51.59;96316.03;4989890;28;20026;-53
2021/07/10 05:57:05;;;;;;;3.78;2.10;;;;;;;20.91;51.59;96311.03;4990383;28;20027;-52
2021/07/10 05:59:30;;;;;;;3.05;1.88;;;;;;;20.92;51.67;96309.91;5021477;28;20380;-52
2021/07/10 06:01:56;;;;;;;5.32;1.90;;;;;;;20.92;51.63;96307.25;4990820;28;20482;-53
2021/07/10 06:04:21;;;;;;;7.07;2.40;;;;;;;20.92;52.10;96307.25;4989696;28;20022;-52
2021/07/10 06:06:47;;;;;;;5.65;2.10;;;;;;;20.91;52.10;96314.47;4989392;28;20023;-52
2021/07/10 06:09:12;;;;;;;6.90;2.00;;;;;;;20.92;52.38;96304.59;4967564;28;20038;-51
2021/07/10 06:11:37;;;;;;;7.30;2.28;;;;;;;20.91;52.51;96308.38;4989275;28;20031;-52
2021/07/10 06:14:08;;;;;;;3.88;1.65;;;;;;;20.91;52.43;96300.38;4986734;28;20077;-52
2021/07/10 06:16:34;;;;;;;5.18;2.30;;;;;;;20.91;52.58;96295.03;4987705;28;20034;-51
2021/07/10 06:18:59;;;;;;;4.00;1.90;;;;;;;20.91;52.64;96306.47;4988787;28;20030;-51
2021/07/10 06:21:24;;;;;;;5.93;2.30;;;;;;;20.91;52.87;96306.47;4989230;28;20116;-52
2021/07/10 06:23:50;;;;;;;3.75;1.92;;;;;;;20.91;53.18;96311.81;4989161;28;20030;-52
2021/07/10 06:26:16;;;;;;;2.72;1.75;;;;;;;20.92;53.20;96301.91;4989068;28;20046;-52
2021/07/10 06:28:42;;;;;;;5.65;2.65;;;;;;;20.92;53.10;96296.59;4989353;28;20470;-52
2021/07/10 06:31:07;;;;;;;13.63;4.72;;;;;;;20.91;53.45;96298.47;4988683;28;20030;-52
2021/07/10 06:33:32;;;;;;;9.60;3.55;;;;;;;20.93;53.46;96298.16;4988941;28;20042;-52
2021/07/10 06:35:58;;;;;;;11.07;3.88;;;;;;;20.92;53.31;96297.38;4987346;28;20038;-52
2021/07/10 06:38:23;;;;;;;7.68;3.20;;;;;;;20.94;53.30;96297.03;4989979;28;20030;-51
2021/07/10 06:40:49;;;;;;;7.15;3.47;;;;;;;20.93;53.21;96296.28;4989698;28;20479;-51
2021/07/10 06:43:14;;;;;;;9.40;3.75;;;;;;;20.94;53.26;96294.38;4989337;28;20026;-52
2021/07/10 06:45:40;;;;;;;5.95;2.70;;;;;;;20.94;53.19;96287.16;4987047;28;20030;-52
2021/07/10 06:48:06;;;;;;;9.95;2.88;;;;;;;20.95;53.33;96290.63;4986824;28;20098;-52
2021/07/10 06:50:31;;;;;;;8.23;3.75;;;;;;;20.95;53.07;96294.06;4988567;28;20364;-53
2021/07/10 06:52:57;;;;;;;5.18;2.60;;;;;;;20.95;53.32;96283.38;4989321;28;20084;-52
2021/07/10 06:55:22;;;;;;;3.60;2.38;;;;;;;20.97;53.37;96279.59;4988605;28;20046;-51
2021/07/10 06:57:48;;;;;;;4.72;2.58;;;;;;;20.97;53.40;96283.06;4974857;28;20041;-52
2021/07/10 07:00:15;;;;;;;5.45;2.42;;;;;;;20.97;53.32;96277.75;4983030;28;20110;-51
2021/07/10 07:02:41;;;;;;;8.52;2.58;;;;;;;20.98;53.42;96273.19;4969394;28;20030;-51
2021/07/10 07:05:07;;;;;;;8.90;2.67;;;;;;;20.99;53.35;96270.19;4967521;28;20110;-51
2021/07/10 07:07:32;;;;;;;8.60;3.30;;;;;;;20.99;53.35;96269.38;4969071;28;20034;-51
2021/07/10 07:09:57;;;;;;;9.32;2.20;;;;;;;21.00;53.34;96268.28;4969751;28;20478;-52
2021/07/10 07:12:23;;;;;;;4.55;2.03;;;;;;;21.01;53.49;96280.53;4969361;28;20053;-53
2021/07/10 07:14:48;;;;;;;3.88;2.30;;;;;;;21.01;53.42;96275.97;4969233;28;20043;-51
2021/07/10 07:17:14;;;;;;;7.68;2.72;;;;;;;21.02;53.42;96280.19;4976154;28;20921;-53
2021/07/10 07:19:39;;;;;;;3.40;2.40;;;;;;;21.03;53.42;96278.31;4969111;28;20039;-51
2021/07/10 07:22:04;;;;;;;6.72;2.38;;;;;;;21.03;53.20;96276.44;4969350;28;20034;-51
2021/07/10 07:24:30;;;;;;;5.18;2.30;;;;;;;21.05;53.40;96281.44;4968847;28;20107;-51
2021/07/10 07:26:56;;;;;;;5.07;2.10;;;;;;;21.04;53.38;96267.31;4969348;28;20109;-51
2021/07/10 07:29:21;;;;;;;3.83;2.20;;;;;;;21.05;53.56;96271.53;4968550;28;20033;-51
2021/07/10 07:31:47;;;;;;;5.25;1.95;;;;;;;21.06;53.36;96275.00;4969524;28;20070;-51
2021/07/10 07:34:12;;;;;;;5.13;2.20;;;;;;;21.08;53.15;96275.44;4968710;28;20045;-51
2021/07/10 07:36:38;;;;;;;4.05;2.30;;;;;;;21.08;53.28;96283.44;4968934;28;20093;-51
2021/07/10 07:39:04;;;;;;;6.82;2.15;;;;;;;21.08;53.31;96289.53;4968644;28;20039;-52
2021/07/10 07:41:30;;;;;;;4.63;2.50;;;;;;;21.09;53.25;96283.13;4967178;28;20478;-51
2021/07/10 07:43:55;;;;;;;3.60;2.20;;;;;;;21.10;53.26;96282.00;4969321;28;20038;-51
2021/07/10 07:46:20;;;;;;;4.78;2.40;;;;;;;21.11;53.35;96280.13;4968583;28;20039;-51
2021/07/10 07:48:46;;;;;;;3.67;2.30;;;;;;;21.11;53.24;96283.56;4968070;28;20027;-52
2021/07/10 07:51:12;;;;;;;4.93;2.22;;;;;;;21.13;53.18;96283.25;4968370;28;20054;-51
2021/07/10 07:53:37;;;;;;;4.85;2.13;;;;;;;21.14;53.33;96290.13;4968862;28;20125;-52
2021/07/10 07:56:04;;;;;;;2.92;2.00;;;;;;;21.14;53.31;96301.56;4968579;28;20035;-52
2021/07/10 07:58:29;;;;;;;3.17;1.92;;;;;;;21.15;53.19;96308.47;4968000;28;20820;-52
2021/07/10 08:00:55;;;;;;;5.32;2.28;;;;;;;21.16;53.16;96295.91;4968713;28;20040;-52
2021/07/10 08:03:20;;;;;;;2.80;1.88;;;;;;;21.17;53.13;96294.03;4968116;28;20462;-54
2021/07/10 08:05:46;;;;;;;5.43;2.10;;;;;;;21.18;53.02;96295.59;4967775;28;20043;-52
2021/07/10 08:08:13;;;;;;;5.68;1.92;;;;;;;21.19;53.18;96297.13;4967371;28;20038;-51
2021/07/10 08:10:38;;;;;;;2.67;2.20;;;;;;;21.20;52.91;96288.03;4968432;28;20038;-52
2021/07/10 08:13:03;;;;;;;2.20;1.65;;;;;;;21.20;52.74;96288.03;4968469;28;20035;-51
2021/07/10 08:15:29;;;;;;;3.92;2.20;;;;;;;21.21;52.96;96281.59;4968163;28;20588;-53
2021/07/10 08:17:54;;;;;;;3.67;1.60;;;;;;;21.22;52.91;96281.25;4975709;28;20038;-52
2021/07/10 08:20:21;;;;;;;3.08;1.92;;;;;;;21.23;53.01;96268.69;4967744;28;20030;-52
2021/07/10 08:22:46;;;;;;;2.50;2.10;;;;;;;21.23;52.84;96266.84;4968062;28;20033;-52
2021/07/10 08:25:12;;;;;;;3.35;1.98;;;;;;;21.24;52.71;96263.03;4967730;28;20019;-51
2021/07/10 08:27:38;;;;;;;4.53;2.30;;;;;;;21.25;52.79;96259.28;4967757;28;20487;-53
2021/07/10 08:30:05;;;;;;;3.47;2.17;;;;;;;21.26;52.59;96262.72;4967900;28;20502;-53
2021/07/10 08:32:30;;;;;;;2.25;1.95;;;;;;;21.27;52.75;96265.06;4967694;28;20030;-53
2021/07/10 08:34:55;;;;;;;3.60;2.08;;;;;;;21.27;52.89;96267.72;4968319;28;20595;-52
2021/07/10 08:37:21;;;;;;;4.32;2.10;;;;;;;21.28;52.66;96274.63;4967130;28;20030;-53
2021/07/10 08:39:46;;;;;;;4.40;2.15;;;;;;;21.29;52.75;96268.19;4967826;28;20027;-53
2021/07/10 08:42:12;;;;;;;2.65;1.90;;;;;;;21.30;52.67;96264.38;4967561;28;20026;-52
2021/07/10 08:44:39;;;;;;;2.67;2.30;;;;;;;21.31;52.60;96257.19;4967845;28;20411;-53
2021/07/10 08:47:05;;;;;;;4.55;2.30;;;;;;;21.32;52.32;96258.72;4967700;28;20387;-53
2021/07/10 08:49:30;;;;;;;2.30;2.00;;;;;;;21.32;52.56;96259.50;4950103;28;20523;-54
2021/07/10 08:51:56;;;;;;;4.32;1.92;;;;;;;21.33;52.63;96260.31;4974734;28;20549;-53
2021/07/10 08:54:21;;;;;;;4.63;1.80;;;;;;;21.34;52.62;96256.50;4986987;28;20030;-53
2021/07/10 08:56:46;;;;;;;2.13;1.90;;;;;;;21.35;52.46;96261.53;4985056;28;20026;-55
2021/07/10 08:59:12;;;;;;;4.07;1.98;;;;;;;21.37;52.37;96260.41;4982269;28;20050;-54
2021/07/10 09:01:37;;;;;;;3.58;2.08;;;;;;;21.38;52.74;96259.31;4986900;28;20022;-54
2021/07/10 09:04:03;;;;;;;6.03;1.92;;;;;;;21.39;53.10;96259.00;4987340;28;20025;-53
2021/07/10 09:06:28;;;;;;;4.30;2.05;;;;;;;21.40;52.92;96254.41;4986811;28;20026;-52
2021/07/10 09:08:57;;;;;;;3.75;2.13;;;;;;;21.41;52.83;96254.09;4986404;28;20026;-54
2021/07/10 09:11:23;;;;;;;3.72;2.10;;;;;;;21.44;53.34;96253.44;4986984;28;20069;-53
2021/07/10 09:13:53;;;;;;;3.20;2.00;;;;;;;21.46;53.71;96256.56;4982140;28;20050;-53
2021/07/10 09:16:32;;;;;;;3.03;2.53;;;;;;;21.49;53.95;96252.44;4986841;28;20080;-54
2021/07/10 09:19:08;;;;;;;3.00;2.20;;;;;;;21.53;53.93;96253.34;4988986;28;20089;-52
2021/07/10 09:21:48;;;;;;;4.63;2.70;;;;;;;21.57;53.54;96256.94;4989948;28;20034;-52
2021/07/10 09:24:25;;;;;;;4.63;2.25;;;;;;;21.60;53.54;96261.59;4987675;28;20034;-52
2021/07/10 09:26:52;;;;;;;2.50;2.30;;;;;;;21.63;53.48;96268.97;4990557;28;20122;-52
2021/07/10 09:29:20;;;;;;;3.08;2.20;;;;;;;21.67;53.43;96264.50;4987624;28;20487;-52
2021/07/10 09:32:05;;;;;;;4.95;2.40;;;;;;;21.71;53.10;96270.75;4990087;28;20085;-51
2021/07/10 09:34:33;;;;;;;4.03;2.35;;;;;;;21.75;53.35;96265.50;4989969;28;20506;-51
2021/07/10 09:37:03;;;;;;;3.38;1.80;;;;;;;21.78;53.16;96259.50;4990045;28;20027;-51
2021/07/10 09:39:31;;;;;;;3.20;2.17;;;;;;;21.82;52.79;96256.97;4989730;28;20498;-53
2021/07/10 09:41:57;;;;;;;6.00;2.30;;;;;;;21.84;52.76;96241.38;4989912;28;20402;-52
2021/07/10 09:44:23;;;;;;;4.45;2.47;;;;;;;21.87;52.41;96241.50;4989186;28;20421;-51
2021/07/10 09:46:48;;;;;;;2.40;2.20;;;;;;;21.89;52.52;96241.94;4988522;28;20490;-52
2021/07/10 09:49:29;;;;;;;3.63;2.40;;;;;;;21.93;52.70;96239.38;4988619;28;20022;-52
2021/07/10 09:52:06;;;;;;;4.85;2.60;;;;;;;21.97;53.03;96240.25;4990911;28;20040;-51
2021/07/10 09:54:39;;;;;;;7.43;3.40;;;;;;;22.01;54.10;96243.03;4990574;28;20031;-52
2021/07/10 09:57:06;;;;;;;6.68;4.47;;;;;;;22.04;54.55;96243.16;4990656;28;20030;-51
2021/07/10 09:59:34;;;;;;;11.45;8.70;;;;;;;22.09;54.44;96247.50;4989847;28;20025;-51
2021/07/10 10:02:00;;;;;;;23.98;9.38;;;;;;;22.13;54.36;96251.03;4990202;28;20118;-52
2021/07/10 10:04:26;;;;;;;46.42;11.27;;;;;;;22.17;54.40;96246.59;5018923;28;20479;-52
2021/07/10 10:06:56;;;;;;;33.25;9.48;;;;;;;22.22;54.06;96240.25;4986378;28;20490;-51
2021/07/10 10:09:26;;;;;;;22.25;7.75;;;;;;;22.25;53.72;96232.34;4986132;28;20034;-51
2021/07/10 10:11:58;;;;;;;37.42;10.50;;;;;;;22.29;54.09;96235.13;4988554;28;20030;-52
2021/07/10 10:14:28;;;;;;;28.85;7.88;;;;;;;22.31;53.65;96236.34;4989466;28;20130;-52
2021/07/10 10:16:54;;;;;;;17.20;6.93;;;;;;;22.33;53.77;96238.69;4988223;28;20046;-53
2021/07/10 10:19:21;;;;;;;21.75;7.57;;;;;;;22.38;53.75;96238.47;4974237;28;20042;-53
2021/07/10 10:21:47;;;;;;;18.67;7.03;;;;;;;22.41;53.83;96237.00;4980572;28;20042;-52
2021/07/10 10:24:13;;;;;;;16.83;6.65;;;;;;;22.44;54.12;96223.00;4978613;28;20033;-52
2021/07/10 10:26:40;;;;;;;14.88;5.90;;;;;;;22.47;54.13;96222.31;4978983;28;20091;-52
2021/07/10 10:29:06;;;;;;;14.05;5.80;;;;;;;22.50;54.31;96219.75;4988446;28;20034;-53
2021/07/10 10:31:31;;;;;;;10.40;5.28;;;;;;;22.54;54.33;96214.50;4989704;28;20023;-53
2021/07/10 10:33:57;;;;;;;16.05;5.35;;;;;;;22.59;54.38;96218.81;4990013;28;20961;-55
2021/07/10 10:36:23;;;;;;;11.85;5.13;;;;;;;22.62;54.46;96205.56;4989455;28;20042;-54
2021/07/10 10:38:52;;;;;;;7.63;3.83;;;;;;;22.67;54.67;96201.84;4988025;28;20537;-52
2021/07/10 10:41:18;;;;;;;11.70;4.43;;;;;;;22.70;54.56;96211.88;4989396;28;20033;-52
2021/07/10 10:43:44;;;;;;;7.88;4.75;;;;;;;22.73;54.58;96203.16;4988240;28;20037;-53
2021/07/10 10:46:13;;;;;;;7.43;3.58;;;;;;;22.77;54.78;96200.59;4988210;28;20057;-53
2021/07/10 10:48:39;;;;;;;9.05;3.67;;;;;;;22.80;54.91;96200.69;4989053;28;20137;-53
2021/07/10 10:51:33;;;;;;;8.45;3.90;;;;;;;22.85;54.71;96202.34;4989333;28;20041;-53
2021/07/10 10:54:16;;;;;;;7.25;4.20;;;;;;;22.90;54.90;96202.88;4988475;28;20042;-53
2021/07/10 10:56:42;;;;;;;6.68;3.80;;;;;;;22.94;54.72;96201.09;4970897;28;20015;-52
2021/07/10 10:59:27;;;;;;;6.38;3.55;;;;;;;23.00;54.77;96203.50;4969429;28;20095;-53
2021/07/10 11:01:56;;;;;;;6.13;3.20;;;;;;;23.03;54.54;96208.19;4965699;28;20038;-52
2021/07/10 11:04:46;;;;;;;6.20;3.40;;;;;;;23.08;54.13;96205.25;4969963;28;20045;-53
2021/07/10 11:07:23;;;;;;;5.32;2.90;;;;;;;23.12;54.27;96203.47;4976284;28;20038;-53
2021/07/10 11:10:08;;;;;;;5.38;3.03;;;;;;;23.15;53.97;96202.78;4988304;28;20126;-53
2021/07/10 11:12:48;;;;;;;7.00;2.88;;;;;;;23.20;53.88;96191.03;4975532;28;20058;-52
2021/07/10 11:15:26;;;;;;;3.83;2.25;;;;;;;23.24;53.49;96191.91;4989067;28;20065;-52
2021/07/10 11:17:51;;;;;;;5.88;2.75;;;;;;;23.26;53.50;96189.66;4977527;28;20442;-53
2021/07/10 11:20:45;;;;;;;4.13;2.83;;;;;;;23.28;53.24;96185.53;4987819;28;20030;-53
2021/07/10 11:23:28;;;;;;;3.60;2.35;;;;;;;23.31;53.43;96176.81;4983751;28;20030;-52
2021/07/10 11:25:58;;;;;;;6.15;2.42;;;;;;;23.35;53.15;96176.13;4986955;28;20504;-53
2021/07/10 11:28:31;;;;;;;3.33;2.30;;;;;;;23.37;52.84;96174.66;4988059;28;20057;-53